sensor_id;sensor_type;location;lat;lon;timestamp;P1;durP1;ratioP1;P2;durP2;ratioP2
15132;SDS011;7667;51.232;17.110;2023-07-13T00:01:06;6.43;;;5.50;;
15132;SDS011;7667;51.232;17.110;2023-07-13T00:03:34;6.70;;;5.93;;
15132;SDS011;7667;51.232;17.110;2023-07-13T00:06:01;7.27;;;6.07;;
15132;SDS011;7667;51.232;17.110;2023-07-13T00:08:30;6.03;;;5.30;;
15132;SDS011;7667;51.232;17.110;2023-07-13T00:11:00;8.73;;;6.87;;
15132;SDS011;7667;51.232;17.110;2023-07-13T00:13:29;9.73;;;8.17;;
15132;SDS011;7667;51.232;17.110;2023-07-13T00:15:57;9.90;;;8.20;;
15132;SDS011;7667;51.232;17.110;2023-07-13T00:18:26;6.83;;;5.60;;
15132;SDS011;7667;51.232;17.110;2023-07-13T00:20:57;6.10;;;5.47;;
15132;SDS011;7667;51.232;17.110;2023-07-13T00:23:35;6.27;;;5.40;;
15132;SDS011;7667;51.232;17.110;2023-07-13T00:26:08;6.27;;;5.50;;
15132;SDS011;7667;51.232;17.110;2023-07-13T00:28:38;6.33;;;5.50;;
15132;SDS011;7667;51.232;17.110;2023-07-13T00:31:06;6.27;;;5.37;;
15132;SDS011;7667;51.232;17.110;2023-07-13T00:33:36;6.40;;;5.80;;
15132;SDS011;7667;51.232;17.110;2023-07-13T00:36:04;6.43;;;5.30;;
15132;SDS011;7667;51.232;17.110;2023-07-13T00:38:32;6.33;;;5.20;;
15132;SDS011;7667;51.232;17.110;2023-07-13T00:40:59;5.17;;;4.70;;
15132;SDS011;7667;51.232;17.110;2023-07-13T00:43:28;4.93;;;4.40;;
15132;SDS011;7667;51.232;17.110;2023-07-13T00:48:46;4.63;;;4.17;;
15132;SDS011;7667;51.232;17.110;2023-07-13T00:51:21;4.27;;;3.80;;
15132;SDS011;7667;51.232;17.110;2023-07-13T00:53:54;4.10;;;3.50;;
15132;SDS011;7667;51.232;17.110;2023-07-13T00:56:26;4.80;;;3.60;;
15132;SDS011;7667;51.232;17.110;2023-07-13T00:58:55;4.33;;;3.37;;
15132;SDS011;7667;51.232;17.110;2023-07-13T01:01:24;4.70;;;3.70;;
15132;SDS011;7667;51.232;17.110;2023-07-13T01:03:51;3.60;;;3.30;;
15132;SDS011;7667;51.232;17.110;2023-07-13T01:06:20;6.13;;;3.87;;
15132;SDS011;7667;51.232;17.110;2023-07-13T01:08:48;4.50;;;3.80;;
15132;SDS011;7667;51.232;17.110;2023-07-13T01:11:20;3.53;;;3.23;;
15132;SDS011;7667;51.232;17.110;2023-07-13T01:13:51;4.30;;;3.97;;
15132;SDS011;7667;51.232;17.110;2023-07-13T01:16:25;3.63;;;3.33;;
15132;SDS011;7667;51.232;17.110;2023-07-13T01:18:57;6.47;;;3.60;;
15132;SDS011;7667;51.232;17.110;2023-07-13T01:21:26;4.43;;;3.57;;
15132;SDS011;7667;51.232;17.110;2023-07-13T01:23:56;5.47;;;3.50;;
15132;SDS011;7667;51.232;17.110;2023-07-13T01:26:25;4.97;;;4.43;;
15132;SDS011;7667;51.232;17.110;2023-07-13T01:28:54;6.10;;;4.87;;
15132;SDS011;7667;51.232;17.110;2023-07-13T01:31:23;4.47;;;4.07;;
15132;SDS011;7667;51.232;17.110;2023-07-13T01:33:51;5.73;;;4.93;;
15132;SDS011;7667;51.232;17.110;2023-07-13T01:36:19;5.30;;;4.80;;
15132;SDS011;7667;51.232;17.110;2023-07-13T01:38:48;5.23;;;4.50;;
15132;SDS011;7667;51.232;17.110;2023-07-13T01:41:16;5.37;;;4.87;;
15132;SDS011;7667;51.232;17.110;2023-07-13T01:43:43;6.07;;;4.73;;
15132;SDS011;7667;51.232;17.110;2023-07-13T01:46:11;5.47;;;4.93;;
15132;SDS011;7667;51.232;17.110;2023-07-13T01:48:49;6.30;;;4.63;;
15132;SDS011;7667;51.232;17.110;2023-07-13T01:51:18;5.63;;;4.97;;
15132;SDS011;7667;51.232;17.110;2023-07-13T01:53:47;5.77;;;5.17;;
15132;SDS011;7667;51.232;17.110;2023-07-13T01:56:14;7.10;;;5.60;;
15132;SDS011;7667;51.232;17.110;2023-07-13T01:58:42;8.87;;;5.87;;
15132;SDS011;7667;51.232;17.110;2023-07-13T02:01:11;6.70;;;4.80;;
15132;SDS011;7667;51.232;17.110;2023-07-13T02:03:39;5.77;;;5.17;;
15132;SDS011;7667;51.232;17.110;2023-07-13T02:06:07;6.43;;;5.83;;
15132;SDS011;7667;51.232;17.110;2023-07-13T02:08:35;11.47;;;7.60;;
15132;SDS011;7667;51.232;17.110;2023-07-13T02:11:04;6.20;;;5.60;;
15132;SDS011;7667;51.232;17.110;2023-07-13T02:13:31;6.73;;;5.43;;
15132;SDS011;7667;51.232;17.110;2023-07-13T02:15:59;6.10;;;5.03;;
15132;SDS011;7667;51.232;17.110;2023-07-13T02:18:27;6.00;;;4.90;;
15132;SDS011;7667;51.232;17.110;2023-07-13T02:20:55;5.93;;;5.27;;
15132;SDS011;7667;51.232;17.110;2023-07-13T02:23:22;6.50;;;5.83;;
15132;SDS011;7667;51.232;17.110;2023-07-13T02:25:54;6.53;;;5.23;;
15132;SDS011;7667;51.232;17.110;2023-07-13T02:28:26;6.67;;;5.67;;
15132;SDS011;7667;51.232;17.110;2023-07-13T02:30:53;6.10;;;5.47;;
15132;SDS011;7667;51.232;17.110;2023-07-13T02:33:21;5.70;;;5.10;;
15132;SDS011;7667;51.232;17.110;2023-07-13T02:35:49;5.20;;;4.70;;
15132;SDS011;7667;51.232;17.110;2023-07-13T02:38:16;5.73;;;4.73;;
15132;SDS011;7667;51.232;17.110;2023-07-13T02:40:44;5.97;;;5.37;;
15132;SDS011;7667;51.232;17.110;2023-07-13T02:43:13;6.47;;;5.87;;
15132;SDS011;7667;51.232;17.110;2023-07-13T02:45:44;6.20;;;5.43;;
15132;SDS011;7667;51.232;17.110;2023-07-13T02:48:13;5.33;;;4.83;;
15132;SDS011;7667;51.232;17.110;2023-07-13T02:50:41;5.53;;;4.97;;
15132;SDS011;7667;51.232;17.110;2023-07-13T02:53:09;6.07;;;5.20;;
15132;SDS011;7667;51.232;17.110;2023-07-13T02:55:37;6.50;;;5.83;;
15132;SDS011;7667;51.232;17.110;2023-07-13T02:58:06;5.80;;;5.20;;
15132;SDS011;7667;51.232;17.110;2023-07-13T03:00:34;6.77;;;4.63;;
15132;SDS011;7667;51.232;17.110;2023-07-13T03:03:07;6.53;;;5.33;;
15132;SDS011;7667;51.232;17.110;2023-07-13T03:05:37;8.60;;;6.40;;
15132;SDS011;7667;51.232;17.110;2023-07-13T03:08:04;6.17;;;5.27;;
15132;SDS011;7667;51.232;17.110;2023-07-13T03:10:33;5.67;;;4.90;;
15132;SDS011;7667;51.232;17.110;2023-07-13T03:13:00;5.80;;;5.20;;
15132;SDS011;7667;51.232;17.110;2023-07-13T03:15:28;5.20;;;4.63;;
15132;SDS011;7667;51.232;17.110;2023-07-13T03:17:56;5.90;;;5.10;;
15132;SDS011;7667;51.232;17.110;2023-07-13T03:20:24;6.20;;;5.50;;
15132;SDS011;7667;51.232;17.110;2023-07-13T03:22:51;10.20;;;7.50;;
15132;SDS011;7667;51.232;17.110;2023-07-13T03:25:19;6.83;;;5.37;;
15132;SDS011;7667;51.232;17.110;2023-07-13T03:27:47;6.33;;;5.30;;
15132;SDS011;7667;51.232;17.110;2023-07-13T03:30:15;5.90;;;5.30;;
15132;SDS011;7667;51.232;17.110;2023-07-13T03:32:43;6.03;;;5.43;;
15132;SDS011;7667;51.232;17.110;2023-07-13T03:35:10;5.20;;;4.70;;
15132;SDS011;7667;51.232;17.110;2023-07-13T03:37:38;7.03;;;5.90;;
15132;SDS011;7667;51.232;17.110;2023-07-13T03:40:10;6.20;;;5.00;;
15132;SDS011;7667;51.232;17.110;2023-07-13T03:42:39;5.43;;;4.93;;
15132;SDS011;7667;51.232;17.110;2023-07-13T03:45:07;10.37;;;5.47;;
15132;SDS011;7667;51.232;17.110;2023-07-13T03:47:35;8.00;;;4.77;;
15132;SDS011;7667;51.232;17.110;2023-07-13T03:50:03;13.17;;;6.40;;
15132;SDS011;7667;51.232;17.110;2023-07-13T03:52:31;7.53;;;5.83;;
15132;SDS011;7667;51.232;17.110;2023-07-13T03:54:59;5.40;;;4.90;;
15132;SDS011;7667;51.232;17.110;2023-07-13T03:57:27;7.80;;;6.60;;
15132;SDS011;7667;51.232;17.110;2023-07-13T03:59:54;7.63;;;5.67;;
15132;SDS011;7667;51.232;17.110;2023-07-13T04:02:22;5.77;;;4.77;;
15132;SDS011;7667;51.232;17.110;2023-07-13T04:04:49;5.93;;;4.57;;
15132;SDS011;7667;51.232;17.110;2023-07-13T04:07:17;4.57;;;4.17;;
15132;SDS011;7667;51.232;17.110;2023-07-13T04:09:45;4.43;;;4.00;;
15132;SDS011;7667;51.232;17.110;2023-07-13T04:12:13;5.17;;;3.67;;
15132;SDS011;7667;51.232;17.110;2023-07-13T04:14:41;4.43;;;3.53;;
15132;SDS011;7667;51.232;17.110;2023-07-13T04:17:09;5.87;;;3.20;;
15132;SDS011;7667;51.232;17.110;2023-07-13T04:19:37;4.13;;;3.20;;
15132;SDS011;7667;51.232;17.110;2023-07-13T04:22:04;2.90;;;2.47;;
15132;SDS011;7667;51.232;17.110;2023-07-13T04:24:32;2.60;;;2.40;;
15132;SDS011;7667;51.232;17.110;2023-07-13T04:27:00;3.10;;;2.40;;
15132;SDS011;7667;51.232;17.110;2023-07-13T04:29:29;2.90;;;2.43;;
15132;SDS011;7667;51.232;17.110;2023-07-13T04:31:57;4.37;;;2.70;;
15132;SDS011;7667;51.232;17.110;2023-07-13T04:34:25;2.70;;;2.50;;
15132;SDS011;7667;51.232;17.110;2023-07-13T04:36:53;3.90;;;2.90;;
15132;SDS011;7667;51.232;17.110;2023-07-13T04:39:20;3.70;;;2.20;;
15132;SDS011;7667;51.232;17.110;2023-07-13T04:41:48;3.27;;;2.47;;
15132;SDS011;7667;51.232;17.110;2023-07-13T04:44:15;2.67;;;2.30;;
15132;SDS011;7667;51.232;17.110;2023-07-13T04:46:43;7.57;;;2.50;;
15132;SDS011;7667;51.232;17.110;2023-07-13T04:49:11;3.57;;;2.37;;
15132;SDS011;7667;51.232;17.110;2023-07-13T04:51:39;3.17;;;2.60;;
15132;SDS011;7667;51.232;17.110;2023-07-13T04:54:06;2.80;;;2.50;;
15132;SDS011;7667;51.232;17.110;2023-07-13T04:56:34;2.83;;;2.57;;
15132;SDS011;7667;51.232;17.110;2023-07-13T04:59:02;4.63;;;2.90;;
15132;SDS011;7667;51.232;17.110;2023-07-13T05:01:29;3.10;;;2.73;;
15132;SDS011;7667;51.232;17.110;2023-07-13T05:03:57;3.17;;;2.80;;
15132;SDS011;7667;51.232;17.110;2023-07-13T05:06:26;3.87;;;3.10;;
15132;SDS011;7667;51.232;17.110;2023-07-13T05:08:54;4.97;;;2.90;;
15132;SDS011;7667;51.232;17.110;2023-07-13T05:11:21;3.67;;;2.90;;
15132;SDS011;7667;51.232;17.110;2023-07-13T05:13:49;3.37;;;2.87;;
15132;SDS011;7667;51.232;17.110;2023-07-13T05:16:16;5.10;;;3.10;;
15132;SDS011;7667;51.232;17.110;2023-07-13T05:18:44;3.90;;;3.10;;
15132;SDS011;7667;51.232;17.110;2023-07-13T05:21:12;3.50;;;2.93;;
15132;SDS011;7667;51.232;17.110;2023-07-13T05:23:40;3.67;;;3.00;;
15132;SDS011;7667;51.232;17.110;2023-07-13T05:26:10;3.93;;;3.33;;
15132;SDS011;7667;51.232;17.110;2023-07-13T05:28:38;5.27;;;3.63;;
15132;SDS011;7667;51.232;17.110;2023-07-13T05:31:07;4.90;;;4.40;;
15132;SDS011;7667;51.232;17.110;2023-07-13T05:33:36;4.10;;;3.70;;
15132;SDS011;7667;51.232;17.110;2023-07-13T05:36:04;4.80;;;3.70;;
15132;SDS011;7667;51.232;17.110;2023-07-13T05:38:33;4.00;;;3.60;;
15132;SDS011;7667;51.232;17.110;2023-07-13T05:41:01;4.20;;;3.80;;
15132;SDS011;7667;51.232;17.110;2023-07-13T05:43:31;4.10;;;3.70;;
15132;SDS011;7667;51.232;17.110;2023-07-13T05:46:00;3.90;;;3.50;;
15132;SDS011;7667;51.232;17.110;2023-07-13T05:48:27;4.83;;;3.93;;
15132;SDS011;7667;51.232;17.110;2023-07-13T05:50:55;4.43;;;3.57;;
15132;SDS011;7667;51.232;17.110;2023-07-13T05:53:23;5.67;;;3.33;;
15132;SDS011;7667;51.232;17.110;2023-07-13T05:55:50;4.00;;;2.93;;
15132;SDS011;7667;51.232;17.110;2023-07-13T05:58:21;3.63;;;2.83;;
15132;SDS011;7667;51.232;17.110;2023-07-13T06:00:57;3.40;;;3.10;;
15132;SDS011;7667;51.232;17.110;2023-07-13T06:03:27;4.17;;;3.03;;
15132;SDS011;7667;51.232;17.110;2023-07-13T06:05:55;2.93;;;2.60;;
15132;SDS011;7667;51.232;17.110;2023-07-13T06:08:23;3.90;;;3.00;;
15132;SDS011;7667;51.232;17.110;2023-07-13T06:10:51;3.60;;;2.70;;
15132;SDS011;7667;51.232;17.110;2023-07-13T06:13:18;4.63;;;2.77;;
15132;SDS011;7667;51.232;17.110;2023-07-13T06:15:49;3.60;;;3.27;;
15132;SDS011;7667;51.232;17.110;2023-07-13T06:18:17;4.10;;;2.70;;
15132;SDS011;7667;51.232;17.110;2023-07-13T06:20:44;3.53;;;2.60;;
15132;SDS011;7667;51.232;17.110;2023-07-13T06:23:12;2.70;;;2.50;;
15132;SDS011;7667;51.232;17.110;2023-07-13T06:25:43;4.07;;;2.77;;
15132;SDS011;7667;51.232;17.110;2023-07-13T06:28:28;4.20;;;2.80;;
15132;SDS011;7667;51.232;17.110;2023-07-13T06:31:17;3.23;;;2.40;;
15132;SDS011;7667;51.232;17.110;2023-07-13T06:34:05;3.60;;;2.50;;
15132;SDS011;7667;51.232;17.110;2023-07-13T06:36:51;4.50;;;2.50;;
15132;SDS011;7667;51.232;17.110;2023-07-13T06:39:37;2.83;;;2.30;;
15132;SDS011;7667;51.232;17.110;2023-07-13T06:42:22;2.87;;;2.23;;
15132;SDS011;7667;51.232;17.110;2023-07-13T06:44:58;3.40;;;2.23;;
15132;SDS011;7667;51.232;17.110;2023-07-13T06:47:32;2.20;;;2.00;;
15132;SDS011;7667;51.232;17.110;2023-07-13T06:50:07;3.63;;;2.00;;
15132;SDS011;7667;51.232;17.110;2023-07-13T06:53:05;2.10;;;1.90;;
15132;SDS011;7667;51.232;17.110;2023-07-13T06:55:51;2.27;;;1.90;;
15132;SDS011;7667;51.232;17.110;2023-07-13T06:58:36;2.70;;;1.90;;
15132;SDS011;7667;51.232;17.110;2023-07-13T07:01:21;2.07;;;1.87;;
15132;SDS011;7667;51.232;17.110;2023-07-13T07:04:10;2.20;;;2.00;;
15132;SDS011;7667;51.232;17.110;2023-07-13T07:07:02;3.00;;;2.00;;
15132;SDS011;7667;51.232;17.110;2023-07-13T07:09:46;2.93;;;2.20;;
15132;SDS011;7667;51.232;17.110;2023-07-13T07:12:33;2.73;;;2.53;;
15132;SDS011;7667;51.232;17.110;2023-07-13T07:15:18;4.37;;;2.30;;
15132;SDS011;7667;51.232;17.110;2023-07-13T07:18:04;3.70;;;2.60;;
15132;SDS011;7667;51.232;17.110;2023-07-13T07:20:45;3.07;;;2.77;;
15132;SDS011;7667;51.232;17.110;2023-07-13T07:23:33;4.20;;;3.00;;
15132;SDS011;7667;51.232;17.110;2023-07-13T07:26:14;5.13;;;3.03;;
15132;SDS011;7667;51.232;17.110;2023-07-13T07:29:10;3.60;;;3.30;;
15132;SDS011;7667;51.232;17.110;2023-07-13T07:31:58;4.80;;;3.70;;
15132;SDS011;7667;51.232;17.110;2023-07-13T07:35:04;4.53;;;4.13;;
15132;SDS011;7667;51.232;17.110;2023-07-13T07:37:47;4.70;;;3.77;;
15132;SDS011;7667;51.232;17.110;2023-07-13T07:40:36;4.33;;;3.93;;
15132;SDS011;7667;51.232;17.110;2023-07-13T07:43:24;4.83;;;4.13;;
15132;SDS011;7667;51.232;17.110;2023-07-13T07:46:07;4.67;;;3.73;;
15132;SDS011;7667;51.232;17.110;2023-07-13T07:48:59;4.20;;;3.80;;
15132;SDS011;7667;51.232;17.110;2023-07-13T07:51:48;7.77;;;5.80;;
15132;SDS011;7667;51.232;17.110;2023-07-13T07:54:35;7.07;;;5.43;;
15132;SDS011;7667;51.232;17.110;2023-07-13T07:57:20;13.03;;;11.63;;
15132;SDS011;7667;51.232;17.110;2023-07-13T08:00:09;12.17;;;10.57;;
15132;SDS011;7667;51.232;17.110;2023-07-13T08:02:52;13.57;;;10.47;;
15132;SDS011;7667;51.232;17.110;2023-07-13T08:05:39;13.57;;;12.33;;
15132;SDS011;7667;51.232;17.110;2023-07-13T08:08:22;7.13;;;5.20;;
15132;SDS011;7667;51.232;17.110;2023-07-13T08:11:06;7.40;;;4.77;;
15132;SDS011;7667;51.232;17.110;2023-07-13T08:13:46;7.07;;;4.60;;
15132;SDS011;7667;51.232;17.110;2023-07-13T08:16:16;5.20;;;4.50;;
15132;SDS011;7667;51.232;17.110;2023-07-13T08:18:44;4.43;;;4.03;;
15132;SDS011;7667;51.232;17.110;2023-07-13T08:21:12;5.90;;;3.93;;
15132;SDS011;7667;51.232;17.110;2023-07-13T08:23:40;5.30;;;4.00;;
15132;SDS011;7667;51.232;17.110;2023-07-13T08:26:08;3.90;;;3.37;;
15132;SDS011;7667;51.232;17.110;2023-07-13T08:28:36;3.70;;;3.40;;
15132;SDS011;7667;51.232;17.110;2023-07-13T08:31:04;4.20;;;3.30;;
15132;SDS011;7667;51.232;17.110;2023-07-13T08:33:35;3.17;;;2.87;;
15132;SDS011;7667;51.232;17.110;2023-07-13T08:36:03;3.10;;;2.50;;
15132;SDS011;7667;51.232;17.110;2023-07-13T08:38:32;2.80;;;2.50;;
15132;SDS011;7667;51.232;17.110;2023-07-13T08:41:00;2.90;;;2.60;;
15132;SDS011;7667;51.232;17.110;2023-07-13T08:43:44;4.40;;;2.97;;
15132;SDS011;7667;51.232;17.110;2023-07-13T08:46:36;3.00;;;2.50;;
15132;SDS011;7667;51.232;17.110;2023-07-13T08:49:10;3.00;;;2.70;;
15132;SDS011;7667;51.232;17.110;2023-07-13T08:51:49;3.30;;;3.00;;
15132;SDS011;7667;51.232;17.110;2023-07-13T08:54:32;3.10;;;2.80;;
15132;SDS011;7667;51.232;17.110;2023-07-13T08:57:10;3.10;;;2.80;;
15132;SDS011;7667;51.232;17.110;2023-07-13T08:59:42;3.40;;;3.10;;
15132;SDS011;7667;51.232;17.110;2023-07-13T09:02:23;4.20;;;3.23;;
15132;SDS011;7667;51.232;17.110;2023-07-13T09:05:02;3.40;;;3.10;;
15132;SDS011;7667;51.232;17.110;2023-07-13T09:08:29;4.60;;;3.10;;
15132;SDS011;7667;51.232;17.110;2023-07-13T09:14:18;5.17;;;4.13;;
15132;SDS011;7667;51.232;17.110;2023-07-13T09:17:17;3.90;;;3.50;;
15132;SDS011;7667;51.232;17.110;2023-07-13T09:19:58;3.27;;;2.97;;
15132;SDS011;7667;51.232;17.110;2023-07-13T09:22:56;2.90;;;2.70;;
15132;SDS011;7667;51.232;17.110;2023-07-13T09:25:33;3.22;;;2.83;;
15132;SDS011;7667;51.232;17.110;2023-07-13T09:28:13;3.08;;;2.70;;
15132;SDS011;7667;51.232;17.110;2023-07-13T09:33:41;2.75;;;1.90;;
15132;SDS011;7667;51.232;17.110;2023-07-13T09:39:14;2.20;;;2.00;;
15132;SDS011;7667;51.232;17.110;2023-07-13T09:44:56;2.83;;;2.40;;
15132;SDS011;7667;51.232;17.110;2023-07-13T09:47:27;2.10;;;2.00;;
15132;SDS011;7667;51.232;17.110;2023-07-13T09:50:02;2.08;;;1.70;;
15132;SDS011;7667;51.232;17.110;2023-07-13T09:52:54;2.70;;;2.15;;
15132;SDS011;7667;51.232;17.110;2023-07-13T09:55:32;2.53;;;2.20;;
15132;SDS011;7667;51.232;17.110;2023-07-13T09:58:09;2.28;;;2.08;;
15132;SDS011;7667;51.232;17.110;2023-07-13T10:00:43;3.88;;;2.10;;
15132;SDS011;7667;51.232;17.110;2023-07-13T10:03:30;3.13;;;2.40;;
15132;SDS011;7667;51.232;17.110;2023-07-13T10:06:12;3.40;;;2.38;;
15132;SDS011;7667;51.232;17.110;2023-07-13T10:08:43;2.50;;;2.30;;
15132;SDS011;7667;51.232;17.110;2023-07-13T10:11:20;2.92;;;2.30;;
15132;SDS011;7667;51.232;17.110;2023-07-13T10:13:55;3.33;;;2.20;;
15132;SDS011;7667;51.232;17.110;2023-07-13T10:16:37;2.88;;;2.10;;
15132;SDS011;7667;51.232;17.110;2023-07-13T10:19:15;3.70;;;1.80;;
15132;SDS011;7667;51.232;17.110;2023-07-13T10:22:09;2.17;;;1.88;;
15132;SDS011;7667;51.232;17.110;2023-07-13T10:25:17;1.77;;;1.63;;
15132;SDS011;7667;51.232;17.110;2023-07-13T10:27:56;2.13;;;1.90;;
15132;SDS011;7667;51.232;17.110;2023-07-13T10:30:51;2.75;;;1.30;;
15132;SDS011;7667;51.232;17.110;2023-07-13T10:33:21;2.70;;;1.70;;
15132;SDS011;7667;51.232;17.110;2023-07-13T10:35:50;2.38;;;1.60;;
15132;SDS011;7667;51.232;17.110;2023-07-13T10:38:28;1.73;;;1.38;;
15132;SDS011;7667;51.232;17.110;2023-07-13T10:43:37;1.92;;;1.50;;
15132;SDS011;7667;51.232;17.110;2023-07-13T10:46:11;1.58;;;1.40;;
15132;SDS011;7667;51.232;17.110;2023-07-13T10:48:43;2.10;;;1.55;;
15132;SDS011;7667;51.232;17.110;2023-07-13T10:51:17;3.05;;;1.70;;
15132;SDS011;7667;51.232;17.110;2023-07-13T10:53:48;2.72;;;1.60;;
15132;SDS011;7667;51.232;17.110;2023-07-13T10:56:48;1.60;;;1.38;;
15132;SDS011;7667;51.232;17.110;2023-07-13T10:59:23;2.78;;;2.00;;
15132;SDS011;7667;51.232;17.110;2023-07-13T11:04:48;4.38;;;1.70;;
15132;SDS011;7667;51.232;17.110;2023-07-13T11:07:27;1.95;;;1.40;;
15132;SDS011;7667;51.232;17.110;2023-07-13T11:09:59;1.67;;;1.30;;
15132;SDS011;7667;51.232;17.110;2023-07-13T11:15:15;2.55;;;1.83;;
15132;SDS011;7667;51.232;17.110;2023-07-13T11:18:02;1.92;;;1.77;;
15132;SDS011;7667;51.232;17.110;2023-07-13T11:25:43;2.65;;;1.35;;
15132;SDS011;7667;51.232;17.110;2023-07-13T11:30:43;2.28;;;1.60;;
15132;SDS011;7667;51.232;17.110;2023-07-13T11:33:56;1.67;;;1.30;;
15132;SDS011;7667;51.232;17.110;2023-07-13T11:36:21;2.83;;;1.45;;
15132;SDS011;7667;51.232;17.110;2023-07-13T11:41:30;4.72;;;1.70;;
15132;SDS011;7667;51.232;17.110;2023-07-13T11:44:07;3.53;;;1.60;;
15132;SDS011;7667;51.232;17.110;2023-07-13T11:46:44;2.65;;;1.40;;
15132;SDS011;7667;51.232;17.110;2023-07-13T11:49:42;3.50;;;1.67;;
15132;SDS011;7667;51.232;17.110;2023-07-13T11:52:15;3.15;;;1.55;;
15132;SDS011;7667;51.232;17.110;2023-07-13T11:54:55;3.10;;;1.70;;
15132;SDS011;7667;51.232;17.110;2023-07-13T11:57:25;1.85;;;1.60;;
15132;SDS011;7667;51.232;17.110;2023-07-13T12:00:11;1.67;;;1.52;;
15132;SDS011;7667;51.232;17.110;2023-07-13T12:02:44;4.72;;;1.70;;
15132;SDS011;7667;51.232;17.110;2023-07-13T12:05:17;2.55;;;2.00;;
15132;SDS011;7667;51.232;17.110;2023-07-13T12:07:47;4.22;;;1.95;;
15132;SDS011;7667;51.232;17.110;2023-07-13T12:10:27;3.10;;;1.65;;
15132;SDS011;7667;51.232;17.110;2023-07-13T12:12:58;3.17;;;1.65;;
15132;SDS011;7667;51.232;17.110;2023-07-13T12:15:32;2.55;;;1.65;;
15132;SDS011;7667;51.232;17.110;2023-07-13T12:18:15;2.55;;;1.50;;
15132;SDS011;7667;51.232;17.110;2023-07-13T12:20:46;3.15;;;1.60;;
15132;SDS011;7667;51.232;17.110;2023-07-13T12:23:29;1.60;;;1.50;;
15132;SDS011;7667;51.232;17.110;2023-07-13T12:26:01;2.17;;;1.58;;
15132;SDS011;7667;51.232;17.110;2023-07-13T12:31:05;2.92;;;1.77;;
15132;SDS011;7667;51.232;17.110;2023-07-13T12:33:45;2.40;;;1.83;;
15132;SDS011;7667;51.232;17.110;2023-07-13T12:36:13;3.40;;;1.60;;
15132;SDS011;7667;51.232;17.110;2023-07-13T12:38:41;2.33;;;1.70;;
15132;SDS011;7667;51.232;17.110;2023-07-13T12:41:13;1.83;;;1.38;;
15132;SDS011;7667;51.232;17.110;2023-07-13T12:43:42;2.50;;;1.63;;
15132;SDS011;7667;51.232;17.110;2023-07-13T12:48:53;3.17;;;1.60;;
15132;SDS011;7667;51.232;17.110;2023-07-13T12:51:38;1.83;;;1.70;;
15132;SDS011;7667;51.232;17.110;2023-07-13T12:54:17;1.67;;;1.58;;
15132;SDS011;7667;51.232;17.110;2023-07-13T12:56:48;1.77;;;1.42;;
15132;SDS011;7667;51.232;17.110;2023-07-13T12:59:21;3.38;;;1.55;;
15132;SDS011;7667;51.232;17.110;2023-07-13T13:01:50;1.52;;;1.30;;
15132;SDS011;7667;51.232;17.110;2023-07-13T13:04:18;3.78;;;1.50;;
15132;SDS011;7667;51.232;17.110;2023-07-13T13:06:49;1.90;;;1.55;;
15132;SDS011;7667;51.232;17.110;2023-07-13T13:09:30;2.13;;;1.50;;
15132;SDS011;7667;51.232;17.110;2023-07-13T13:11:57;1.73;;;1.30;;
15132;SDS011;7667;51.232;17.110;2023-07-13T13:14:25;1.35;;;0.98;;
15132;SDS011;7667;51.232;17.110;2023-07-13T13:16:53;2.65;;;1.23;;
15132;SDS011;7667;51.232;17.110;2023-07-13T13:19:25;1.85;;;1.30;;
15132;SDS011;7667;51.232;17.110;2023-07-13T13:21:55;1.63;;;1.10;;
15132;SDS011;7667;51.232;17.110;2023-07-13T13:24:26;1.27;;;1.10;;
15132;SDS011;7667;51.232;17.110;2023-07-13T13:26:55;1.95;;;1.35;;
15132;SDS011;7667;51.232;17.110;2023-07-13T13:29:24;1.48;;;1.20;;
15132;SDS011;7667;51.232;17.110;2023-07-13T13:31:53;1.90;;;1.20;;
15132;SDS011;7667;51.232;17.110;2023-07-13T13:34:22;1.83;;;1.20;;
15132;SDS011;7667;51.232;17.110;2023-07-13T13:36:51;1.20;;;1.10;;
15132;SDS011;7667;51.232;17.110;2023-07-13T13:39:35;2.35;;;1.10;;
15132;SDS011;7667;51.232;17.110;2023-07-13T13:42:04;1.30;;;1.02;;
15132;SDS011;7667;51.232;17.110;2023-07-13T13:44:32;1.40;;;1.30;;
15132;SDS011;7667;51.232;17.110;2023-07-13T13:46:59;1.77;;;1.10;;
15132;SDS011;7667;51.232;17.110;2023-07-13T13:49:27;3.70;;;1.55;;
15132;SDS011;7667;51.232;17.110;2023-07-13T13:51:56;2.33;;;1.33;;
15132;SDS011;7667;51.232;17.110;2023-07-13T13:54:25;3.13;;;1.27;;
15132;SDS011;7667;51.232;17.110;2023-07-13T13:56:53;3.00;;;1.38;;
15132;SDS011;7667;51.232;17.110;2023-07-13T13:59:20;2.00;;;1.42;;
15132;SDS011;7667;51.232;17.110;2023-07-13T14:01:48;2.53;;;1.50;;
15132;SDS011;7667;51.232;17.110;2023-07-13T14:04:20;3.20;;;1.58;;
15132;SDS011;7667;51.232;17.110;2023-07-13T14:06:49;2.05;;;1.38;;
15132;SDS011;7667;51.232;17.110;2023-07-13T14:09:17;1.20;;;1.10;;
15132;SDS011;7667;51.232;17.110;2023-07-13T14:11:47;2.80;;;1.20;;
15132;SDS011;7667;51.232;17.110;2023-07-13T14:14:20;2.25;;;1.15;;
15132;SDS011;7667;51.232;17.110;2023-07-13T14:16:50;1.80;;;1.30;;
15132;SDS011;7667;51.232;17.110;2023-07-13T14:19:22;2.80;;;1.10;;
15132;SDS011;7667;51.232;17.110;2023-07-13T14:21:50;2.03;;;1.35;;
15132;SDS011;7667;51.232;17.110;2023-07-13T14:24:21;2.13;;;1.27;;
15132;SDS011;7667;51.232;17.110;2023-07-13T14:26:48;2.80;;;1.13;;
15132;SDS011;7667;51.232;17.110;2023-07-13T14:29:17;2.00;;;1.38;;
15132;SDS011;7667;51.232;17.110;2023-07-13T14:31:50;2.25;;;1.25;;
15132;SDS011;7667;51.232;17.110;2023-07-13T14:34:18;1.20;;;1.10;;
15132;SDS011;7667;51.232;17.110;2023-07-13T14:36:48;2.65;;;1.40;;
15132;SDS011;7667;51.232;17.110;2023-07-13T14:39:18;2.97;;;1.42;;
15132;SDS011;7667;51.232;17.110;2023-07-13T14:41:53;2.22;;;1.30;;
15132;SDS011;7667;51.232;17.110;2023-07-13T14:44:29;2.10;;;1.33;;
15132;SDS011;7667;51.232;17.110;2023-07-13T14:46:58;1.85;;;1.20;;
15132;SDS011;7667;51.232;17.110;2023-07-13T14:49:41;1.40;;;1.08;;
15132;SDS011;7667;51.232;17.110;2023-07-13T14:52:12;1.40;;;0.95;;
15132;SDS011;7667;51.232;17.110;2023-07-13T14:54:45;1.45;;;1.20;;
15132;SDS011;7667;51.232;17.110;2023-07-13T14:57:14;1.63;;;0.90;;
15132;SDS011;7667;51.232;17.110;2023-07-13T14:59:48;2.85;;;1.15;;
15132;SDS011;7667;51.232;17.110;2023-07-13T15:02:17;1.25;;;1.10;;
15132;SDS011;7667;51.232;17.110;2023-07-13T15:04:55;3.00;;;1.55;;
15132;SDS011;7667;51.232;17.110;2023-07-13T15:07:23;2.25;;;1.75;;
15132;SDS011;7667;51.232;17.110;2023-07-13T15:09:51;2.35;;;1.80;;
15132;SDS011;7667;51.232;17.110;2023-07-13T15:12:19;3.00;;;2.00;;
15132;SDS011;7667;51.232;17.110;2023-07-13T15:14:46;2.30;;;2.00;;
15132;SDS011;7667;51.232;17.110;2023-07-13T15:17:26;3.30;;;2.25;;
15132;SDS011;7667;51.232;17.110;2023-07-13T15:20:46;8.77;;;2.10;;
15132;SDS011;7667;51.232;17.110;2023-07-13T15:23:02;3.17;;;2.20;;
15132;SDS011;7667;51.232;17.110;2023-07-13T15:25:31;10.07;;;2.30;;
15132;SDS011;7667;51.232;17.110;2023-07-13T15:28:00;3.08;;;1.80;;
15132;SDS011;7667;51.232;17.110;2023-07-13T15:30:29;3.10;;;2.00;;
15132;SDS011;7667;51.232;17.110;2023-07-13T15:33:16;2.53;;;1.83;;
15132;SDS011;7667;51.232;17.110;2023-07-13T15:35:53;4.03;;;1.88;;
15132;SDS011;7667;51.232;17.110;2023-07-13T15:38:32;4.43;;;2.10;;
15132;SDS011;7667;51.232;17.110;2023-07-13T15:41:16;4.90;;;2.03;;
15132;SDS011;7667;51.232;17.110;2023-07-13T15:43:53;2.33;;;1.70;;
15132;SDS011;7667;51.232;17.110;2023-07-13T15:46:25;2.13;;;1.55;;
15132;SDS011;7667;51.232;17.110;2023-07-13T15:48:55;2.58;;;1.50;;
15132;SDS011;7667;51.232;17.110;2023-07-13T15:51:26;5.22;;;1.70;;
15132;SDS011;7667;51.232;17.110;2023-07-13T15:53:58;1.92;;;1.63;;
15132;SDS011;7667;51.232;17.110;2023-07-13T15:56:33;3.42;;;1.88;;
15132;SDS011;7667;51.232;17.110;2023-07-13T15:59:03;2.05;;;1.50;;
15132;SDS011;7667;51.232;17.110;2023-07-13T16:01:31;3.15;;;1.75;;
15132;SDS011;7667;51.232;17.110;2023-07-13T16:04:00;1.77;;;1.65;;